createdAt,value
2023-05-06T00:01:58.612Z,100627.81
2023-05-06T00:04:26.861Z,100625.12
2023-05-06T00:06:54.310Z,100623.91
2023-05-06T00:09:21.435Z,100633.47
2023-05-06T00:11:48.998Z,100619.53
2023-05-06T00:14:16.474Z,100633.47
2023-05-06T00:16:43.801Z,100622.47
2023-05-06T00:19:11.389Z,100623.25
2023-05-06T00:21:38.922Z,100625.06
2023-05-06T00:24:06.233Z,100627.88
2023-05-06T00:26:33.644Z,100628.09
2023-05-06T00:29:00.787Z,100628.78
2023-05-06T00:31:28.054Z,100625.94
2023-05-06T00:33:55.452Z,100635.59
2023-05-06T00:36:22.566Z,100631.47
2023-05-06T00:38:49.656Z,100628.78
2023-05-06T00:41:17.042Z,100635.50
2023-05-06T00:43:44.173Z,100632.16
2023-05-06T00:46:11.728Z,100638.19
2023-05-06T00:48:39.864Z,100635.94
2023-05-06T00:51:07.114Z,100633.25
2023-05-06T00:53:34.282Z,100629.06
2023-05-06T00:56:01.732Z,100628.88
2023-05-06T00:58:28.894Z,100627.63
2023-05-06T01:00:56.590Z,100619.91
2023-05-06T01:03:24.256Z,100623.53
2023-05-06T01:06:02.495Z,100620.91
2023-05-06T01:08:37.719Z,100619.25
2023-05-06T01:11:17.820Z,100619.41
2023-05-06T01:13:58.823Z,100631.75
2023-05-06T01:16:27.292Z,100626.69
2023-05-06T01:18:55.109Z,100626.94
2023-05-06T01:21:23.159Z,100632.75
2023-05-06T01:23:56.649Z,100627.63
2023-05-06T01:26:24.661Z,100629.22
2023-05-06T01:28:51.994Z,100629.41
2023-05-06T01:31:27.297Z,100622.44
2023-05-06T01:34:00.260Z,100621.59
2023-05-06T01:36:53.744Z,100618.22
2023-05-06T01:39:25.470Z,100609.84
2023-05-06T01:41:54.241Z,100617.72
2023-05-06T01:44:22.677Z,100613.59
2023-05-06T01:46:50.313Z,100616.72
2023-05-06T01:49:19.178Z,100623.69
2023-05-06T01:51:50.385Z,100618.56
2023-05-06T01:54:18.040Z,100612.03
2023-05-06T01:56:45.291Z,100614.84
2023-05-06T01:59:12.809Z,100612.66
2023-05-06T02:01:40.044Z,100606.63
2023-05-06T02:04:07.623Z,100616.19
2023-05-06T02:06:34.974Z,100612.06
2023-05-06T02:09:02.225Z,100616.25
2023-05-06T02:11:30.538Z,100619.63
2023-05-06T02:13:59.195Z,100618.53
2023-05-06T02:16:29.460Z,100610.81
2023-05-06T02:18:56.966Z,100608.22
2023-05-06T02:21:24.193Z,100622.47
2023-05-06T02:23:51.640Z,100615.41
2023-05-06T02:26:18.796Z,100616.19
2023-05-06T02:28:45.966Z,100618.78
2023-05-06T02:31:15.011Z,100610.72
2023-05-06T02:33:42.422Z,100615.09
2023-05-06T02:36:11.269Z,100612.25
2023-05-06T02:38:38.787Z,100621.22
2023-05-06T02:41:05.977Z,100614.34
2023-05-06T02:43:33.166Z,100619.69
2023-05-06T02:46:00.699Z,100620.78
2023-05-06T02:48:27.917Z,100622.78
2023-05-06T02:50:55.108Z,100618.50
2023-05-06T02:53:22.613Z,100618.50
2023-05-06T02:55:49.819Z,100620.41
2023-05-06T02:58:17.021Z,100620.50
2023-05-06T03:00:44.525Z,100622.34
2023-05-06T03:03:11.777Z,100620.78
2023-05-06T03:05:38.947Z,100613.78
2023-05-06T03:08:06.537Z,100611.13
2023-05-06T03:10:34.021Z,100618.06
2023-05-06T03:13:01.578Z,100617.25
2023-05-06T03:15:29.412Z,100621.69
2023-05-06T03:17:56.750Z,100625.88
2023-05-06T03:20:24.559Z,100625.59
2023-05-06T03:22:52.503Z,100622.88
2023-05-06T03:25:20.097Z,100618.50
2023-05-06T03:27:47.820Z,100619.44
2023-05-06T03:30:16.222Z,100610.94
2023-05-06T03:32:43.872Z,100615.12
2023-05-06T03:35:11.725Z,100616.97
2023-05-06T03:37:39.803Z,100613.63
2023-05-06T03:40:07.838Z,100612.47
2023-05-06T03:42:35.079Z,100626.28
2023-05-06T03:45:03.183Z,100617.72
2023-05-06T03:47:31.588Z,100618.41
2023-05-06T03:49:59.563Z,100620.69
2023-05-06T03:52:27.196Z,100615.66
2023-05-06T03:54:54.567Z,100625.66
2023-05-06T03:57:21.799Z,100620.19
2023-05-06T03:59:49.623Z,100620.88
2023-05-06T04:02:17.091Z,100620.66
2023-05-06T04:04:44.789Z,100627.25
2023-05-06T04:07:12.220Z,100630.47
2023-05-06T04:09:39.365Z,100635.66
2023-05-06T04:12:07.190Z,100642.19
2023-05-06T04:14:35.019Z,100636.53
2023-05-06T04:17:02.956Z,100635.50
2023-05-06T04:19:30.520Z,100648.69
2023-05-06T04:21:58.674Z,100642.91
2023-05-06T04:24:28.504Z,100641.69
2023-05-06T04:26:57.538Z,100647.34
2023-05-06T04:29:25.280Z,100648.50
2023-05-06T04:31:53.999Z,100656.44
2023-05-06T04:34:21.721Z,100647.84
2023-05-06T04:36:49.524Z,100641.78
2023-05-06T04:39:18.083Z,100636.66
2023-05-06T04:41:46.110Z,100641.03
2023-05-06T04:44:13.990Z,100647.84
2023-05-06T04:46:42.088Z,100651.00
2023-05-06T04:49:11.901Z,100643.00
2023-05-06T04:51:39.966Z,100642.81
2023-05-06T04:54:07.349Z,100640.94
2023-05-06T04:56:35.270Z,100642.47
2023-05-06T04:59:02.488Z,100650.00
2023-05-06T05:01:29.864Z,100652.97
2023-05-06T05:03:57.410Z,100654.75
2023-05-06T05:06:24.572Z,100656.41
2023-05-06T05:08:54.265Z,100662.94
2023-05-06T05:11:23.483Z,100666.19
2023-05-06T05:13:51.147Z,100661.00
2023-05-06T05:16:18.431Z,100667.87
2023-05-06T05:18:46.553Z,100667.50
2023-05-06T05:21:15.712Z,100665.91
2023-05-06T05:23:42.937Z,100663.16
2023-05-06T05:26:10.446Z,100670.38
2023-05-06T05:28:38.415Z,100667.87
2023-05-06T05:31:06.340Z,100662.38
2023-05-06T05:33:35.700Z,100663.47
2023-05-06T05:36:04.187Z,100658.22
2023-05-06T05:38:31.510Z,100650.87
2023-05-06T05:40:59.474Z,100659.69
2023-05-06T05:43:27.049Z,100650.09
2023-05-06T05:45:54.400Z,100653.94
2023-05-06T05:48:21.888Z,100663.91
2023-05-06T05:50:49.075Z,100647.19
2023-05-06T05:53:16.280Z,100659.53
2023-05-06T05:55:43.903Z,100664.63
2023-05-06T05:58:11.701Z,100660.66
2023-05-06T06:00:39.175Z,100657.03
2023-05-06T06:03:07.055Z,100658.13
2023-05-06T06:05:34.562Z,100654.72
2023-05-06T06:08:03.794Z,100652.91
2023-05-06T06:10:32.075Z,100659.03
2023-05-06T06:13:00.965Z,100647.47
2023-05-06T06:15:29.409Z,100650.63
2023-05-06T06:17:57.063Z,100642.75
2023-05-06T06:20:25.368Z,100647.88
2023-05-06T06:22:53.134Z,100651.91
2023-05-06T06:25:21.589Z,100650.31
2023-05-06T06:27:48.834Z,100646.31
2023-05-06T06:30:16.170Z,100650.34
2023-05-06T06:32:51.660Z,100647.75
2023-05-06T06:35:20.160Z,100646.06
2023-05-06T06:37:47.674Z,100639.63
2023-05-06T06:40:15.257Z,100645.50
2023-05-06T06:42:42.451Z,100638.56
2023-05-06T06:45:17.264Z,100642.16
2023-05-06T06:47:44.450Z,100628.16
2023-05-06T06:50:12.049Z,100630.97
2023-05-06T06:52:39.213Z,100636.87
2023-05-06T06:55:06.797Z,100640.13
2023-05-06T06:57:34.362Z,100644.88
2023-05-06T07:00:01.578Z,100640.00
2023-05-06T07:02:29.264Z,100644.37
2023-05-06T07:04:56.773Z,100645.56
2023-05-06T07:07:24.015Z,100645.19
2023-05-06T07:09:51.280Z,100644.91
2023-05-06T07:12:18.736Z,100645.34
2023-05-06T07:14:46.363Z,100640.44
2023-05-06T07:17:13.666Z,100640.91
2023-05-06T07:19:41.281Z,100649.28
2023-05-06T07:22:08.491Z,100647.00
2023-05-06T07:24:35.752Z,100656.78
2023-05-06T07:27:04.250Z,100646.84
2023-05-06T07:29:31.511Z,100653.59
2023-05-06T07:31:58.674Z,100644.91
2023-05-06T07:34:26.139Z,100647.69
2023-05-06T07:36:53.292Z,100643.09
2023-05-06T07:39:20.626Z,100647.00
2023-05-06T07:41:48.100Z,100652.12
2023-05-06T07:44:15.256Z,100640.06
2023-05-06T07:46:42.653Z,100639.91
2023-05-06T07:49:10.343Z,100642.75
2023-05-06T07:51:37.559Z,100638.22
2023-05-06T07:54:04.815Z,100638.13
2023-05-06T07:56:32.275Z,100638.66
2023-05-06T07:59:00.096Z,100642.09
2023-05-06T08:01:28.996Z,100634.69
2023-05-06T08:03:56.602Z,100648.47
2023-05-06T08:06:24.147Z,100654.03
2023-05-06T08:08:51.341Z,100649.59
2023-05-06T08:11:19.458Z,100649.97
2023-05-06T08:13:47.234Z,100648.59
2023-05-06T08:16:14.512Z,100643.44
2023-05-06T08:18:42.097Z,100652.66
2023-05-06T08:21:09.356Z,100658.19
2023-05-06T08:23:36.558Z,100659.44
2023-05-06T08:26:04.052Z,100661.06
2023-05-06T08:28:31.611Z,100646.41
2023-05-06T08:30:58.809Z,100649.91
2023-05-06T08:33:26.275Z,100651.81
2023-05-06T08:35:57.570Z,100649.19
2023-05-06T08:38:25.969Z,100652.06
2023-05-06T08:40:54.353Z,100647.72
2023-05-06T08:43:22.028Z,100641.59
2023-05-06T08:45:49.675Z,100647.59
2023-05-06T08:48:17.054Z,100642.59
2023-05-06T08:50:44.427Z,100648.31
2023-05-06T08:53:13.411Z,100639.88
2023-05-06T08:55:42.081Z,100637.22
2023-05-06T08:58:11.458Z,100635.69
2023-05-06T09:00:39.270Z,100633.63
2023-05-06T09:03:06.694Z,100638.66
2023-05-06T09:05:33.926Z,100637.97
2023-05-06T09:08:01.287Z,100641.66
2023-05-06T09:10:33.021Z,100629.00
2023-05-06T09:13:00.171Z,100633.00
2023-05-06T09:15:27.687Z,100631.75
2023-05-06T09:17:55.373Z,100627.84
2023-05-06T09:20:22.634Z,100618.28
2023-05-06T09:22:50.763Z,100622.97
2023-05-06T09:25:17.961Z,100620.06
2023-05-06T09:27:45.070Z,100616.47
2023-05-06T09:30:13.411Z,100606.87
2023-05-06T09:32:41.165Z,100613.25
2023-05-06T09:35:10.392Z,100611.50
2023-05-06T09:37:38.165Z,100612.53
2023-05-06T09:40:06.063Z,100616.81
2023-05-06T09:42:34.156Z,100605.72
2023-05-06T09:45:02.894Z,100610.09
2023-05-06T09:47:35.788Z,100605.44
2023-05-06T09:50:03.881Z,100608.25
2023-05-06T09:52:32.545Z,100601.72
2023-05-06T09:55:00.188Z,100596.75
2023-05-06T09:57:30.826Z,100591.16
2023-05-06T09:59:58.319Z,100590.25
2023-05-06T10:02:26.688Z,100588.88
2023-05-06T10:04:57.373Z,100580.28
2023-05-06T10:07:28.760Z,100588.34
2023-05-06T10:09:57.020Z,100590.31
2023-05-06T10:12:24.257Z,100590.50
2023-05-06T10:14:51.485Z,100585.69
2023-05-06T10:17:19.112Z,100580.22
2023-05-06T10:19:46.756Z,100570.50
2023-05-06T10:22:34.628Z,100582.38
2023-05-06T10:25:19.336Z,100579.47
2023-05-06T10:27:48.139Z,100568.97
2023-05-06T10:30:19.237Z,100575.47
2023-05-06T10:32:46.917Z,100561.59
2023-05-06T10:35:41.453Z,100559.00
2023-05-06T10:38:34.685Z,100562.31
2023-05-06T10:41:02.455Z,100549.53
2023-05-06T10:43:34.148Z,100547.06
2023-05-06T10:46:09.197Z,100550.66
2023-05-06T10:48:38.942Z,100548.00
2023-05-06T10:51:27.205Z,100539.91
2023-05-06T10:54:04.654Z,100530.50
2023-05-06T10:56:57.296Z,100522.56
2023-05-06T10:59:26.504Z,100526.91
2023-05-06T11:02:02.524Z,100528.19
2023-05-06T11:04:31.313Z,100527.88
2023-05-06T11:07:15.017Z,100526.22
2023-05-06T11:09:54.887Z,100528.53
2023-05-06T11:12:22.950Z,100525.56
2023-05-06T11:14:50.415Z,100522.72
2023-05-06T11:17:31.870Z,100520.44
2023-05-06T11:20:31.919Z,100522.56
2023-05-06T11:22:59.061Z,100521.41
2023-05-06T11:25:40.256Z,100531.53
2023-05-06T11:28:11.761Z,100520.25
2023-05-06T11:30:42.211Z,100521.91
2023-05-06T11:33:14.388Z,100522.22
2023-05-06T11:35:41.904Z,100516.44
2023-05-06T11:38:09.310Z,100517.09
2023-05-06T11:40:36.890Z,100519.91
2023-05-06T11:43:14.076Z,100518.41
2023-05-06T11:45:42.058Z,100526.03
2023-05-06T11:48:14.762Z,100521.38
2023-05-06T11:50:47.225Z,100526.88
2023-05-06T11:53:18.936Z,100520.91
2023-05-06T11:55:46.878Z,100536.44
2023-05-06T11:58:24.985Z,100527.28
2023-05-06T12:01:03.025Z,100525.13
2023-05-06T12:03:31.834Z,100529.75
2023-05-06T12:05:59.494Z,100528.75
2023-05-06T12:08:37.238Z,100529.06
2023-05-06T12:11:06.798Z,100532.34
2023-05-06T12:13:37.902Z,100531.53
2023-05-06T12:16:08.282Z,100522.22
2023-05-06T12:18:36.232Z,100528.84
2023-05-06T12:21:03.700Z,100520.19
2023-05-06T12:23:31.285Z,100517.72
2023-05-06T12:26:06.197Z,100518.22
2023-05-06T12:28:36.248Z,100515.72
2023-05-06T12:31:23.196Z,100508.75
2023-05-06T12:33:50.930Z,100513.22
2023-05-06T12:36:18.840Z,100511.41
2023-05-06T12:39:02.004Z,100505.94
2023-05-06T12:41:43.722Z,100502.81
2023-05-06T12:44:33.757Z,100501.50
2023-05-06T12:47:05.635Z,100493.59
2023-05-06T12:49:59.108Z,100503.50
2023-05-06T12:52:29.572Z,100503.50
2023-05-06T12:54:57.211Z,100500.72
2023-05-06T12:57:24.383Z,100508.47
2023-05-06T12:59:53.746Z,100504.47
2023-05-06T13:02:21.140Z,100497.41
2023-05-06T13:04:49.444Z,100498.25
2023-05-06T13:07:17.079Z,100497.53
2023-05-06T13:09:45.053Z,100498.72
2023-05-06T13:12:12.324Z,100498.37
2023-05-06T13:14:40.413Z,100499.19
2023-05-06T13:17:08.270Z,100496.53
2023-05-06T13:19:35.903Z,100487.78
2023-05-06T13:22:03.403Z,100497.41
2023-05-06T13:24:32.188Z,100501.56
2023-05-06T13:27:01.353Z,100491.50
2023-05-06T13:29:29.772Z,100488.31
2023-05-06T13:31:57.646Z,100491.97
2023-05-06T13:34:24.943Z,100489.50
2023-05-06T13:36:54.600Z,100491.78
2023-05-06T13:39:21.929Z,100497.56
2023-05-06T13:41:52.578Z,100488.47
2023-05-06T13:44:20.515Z,100487.41
2023-05-06T13:46:48.278Z,100485.75
2023-05-06T13:49:15.643Z,100485.28
2023-05-06T13:51:43.096Z,100503.62
2023-05-06T13:54:10.316Z,100498.37
2023-05-06T13:56:37.593Z,100492.50
2023-05-06T13:59:05.087Z,100491.59
2023-05-06T14:01:32.346Z,100493.72
2023-05-06T14:04:00.180Z,100499.31
2023-05-06T14:06:27.714Z,100499.47
2023-05-06T14:08:55.722Z,100500.78
2023-05-06T14:11:23.192Z,100496.00
2023-05-06T14:13:50.432Z,100500.53
2023-05-06T14:16:17.696Z,100488.66
2023-05-06T14:18:45.251Z,100500.72
2023-05-06T14:21:12.325Z,100489.56
2023-05-06T14:23:39.525Z,100498.91
2023-05-06T14:26:07.472Z,100485.78
2023-05-06T14:28:34.642Z,100480.38
2023-05-06T14:31:01.856Z,100480.44
2023-05-06T14:33:29.326Z,100485.72
2023-05-06T14:35:58.234Z,100477.37
2023-05-06T14:38:25.383Z,100472.16
2023-05-06T14:40:52.827Z,100471.72
2023-05-06T14:43:20.233Z,100464.09
2023-05-06T14:45:47.600Z,100462.72
2023-05-06T14:48:15.647Z,100467.00
2023-05-06T14:50:42.771Z,100466.31
2023-05-06T14:53:09.940Z,100462.97
2023-05-06T14:55:37.496Z,100467.00
2023-05-06T14:58:04.700Z,100464.34
2023-05-06T15:00:31.865Z,100464.22
2023-05-06T15:02:59.557Z,100466.94
2023-05-06T15:05:27.046Z,100462.94
2023-05-06T15:07:54.264Z,100468.47
2023-05-06T15:10:21.993Z,100460.16
2023-05-06T15:12:49.151Z,100461.25
2023-05-06T15:15:16.320Z,100470.13
2023-05-06T15:17:43.803Z,100464.00
2023-05-06T15:20:11.462Z,100462.47
2023-05-06T15:22:39.666Z,100467.56
2023-05-06T15:25:09.368Z,100474.91
2023-05-06T15:27:39.392Z,100453.66
2023-05-06T15:30:08.436Z,100457.94
2023-05-06T15:32:35.626Z,100462.41
2023-05-06T15:35:04.970Z,100456.16
2023-05-06T15:37:33.792Z,100466.44
2023-05-06T15:40:01.026Z,100461.47
2023-05-06T15:42:29.511Z,100447.72
2023-05-06T15:44:57.750Z,100447.41
2023-05-06T15:47:25.023Z,100444.19
2023-05-06T15:49:55.028Z,100450.19
2023-05-06T15:52:24.673Z,100441.03
2023-05-06T15:54:51.845Z,100439.69
2023-05-06T15:57:19.162Z,100449.34
2023-05-06T15:59:47.041Z,100439.09
2023-05-06T16:02:26.912Z,100442.34
2023-05-06T16:04:54.898Z,100439.28
2023-05-06T16:07:22.211Z,100434.38
2023-05-06T16:09:50.300Z,100437.03
2023-05-06T16:12:17.685Z,100442.59
2023-05-06T16:14:44.790Z,100431.41
2023-05-06T16:17:11.890Z,100425.59
2023-05-06T16:19:39.379Z,100434.72
2023-05-06T16:22:06.458Z,100432.91
2023-05-06T16:24:33.569Z,100429.25
2023-05-06T16:27:01.192Z,100439.66
2023-05-06T16:29:28.306Z,100446.00
2023-05-06T16:31:55.452Z,100445.03
2023-05-06T16:34:22.943Z,100448.62
2023-05-06T16:36:50.693Z,100444.34
2023-05-06T16:39:17.821Z,100444.19
2023-05-06T16:41:46.501Z,100446.91
2023-05-06T16:44:13.606Z,100449.75
2023-05-06T16:46:40.809Z,100448.28
2023-05-06T16:49:08.462Z,100448.62
2023-05-06T16:51:36.193Z,100447.41
2023-05-06T16:54:03.427Z,100454.69
2023-05-06T16:56:43.901Z,100457.94
2023-05-06T16:59:15.604Z,100463.50
2023-05-06T17:01:43.059Z,100464.50
2023-05-06T17:04:10.389Z,100459.09
2023-05-06T17:06:37.516Z,100459.41
2023-05-06T17:09:04.986Z,100460.00
2023-05-06T17:11:32.064Z,100461.94
2023-05-06T17:13:59.169Z,100455.28
2023-05-06T17:16:26.608Z,100454.44
2023-05-06T17:18:53.744Z,100448.91
2023-05-06T17:21:21.363Z,100452.25
2023-05-06T17:23:48.791Z,100439.47
2023-05-06T17:26:17.796Z,100438.13
2023-05-06T17:28:45.134Z,100447.25
2023-05-06T17:31:14.485Z,100445.12
2023-05-06T17:33:41.616Z,100441.41
2023-05-06T17:36:09.006Z,100447.88
2023-05-06T17:38:36.544Z,100446.63
2023-05-06T17:41:03.697Z,100448.56
2023-05-06T17:43:30.872Z,100445.09
2023-05-06T17:45:58.368Z,100443.56
2023-05-06T17:48:25.580Z,100444.09
2023-05-06T17:50:52.706Z,100448.62
2023-05-06T17:53:20.137Z,100450.66
2023-05-06T17:55:47.235Z,100450.06
2023-05-06T17:58:14.302Z,100442.84
2023-05-06T18:00:42.137Z,100450.53
2023-05-06T18:03:09.606Z,100444.37
2023-05-06T18:05:36.826Z,100446.69
2023-05-06T18:08:04.852Z,100445.38
2023-05-06T18:10:32.312Z,100448.53
2023-05-06T18:12:59.458Z,100449.03
2023-05-06T18:15:26.600Z,100446.31
2023-05-06T18:17:54.291Z,100456.50
2023-05-06T18:20:21.472Z,100459.41
2023-05-06T18:22:48.884Z,100463.38
2023-05-06T18:25:16.345Z,100475.94
2023-05-06T18:27:43.568Z,100476.28
2023-05-06T18:30:11.003Z,100470.22
2023-05-06T18:32:38.518Z,100468.78
2023-05-06T18:35:06.075Z,100470.72
2023-05-06T18:37:33.231Z,100474.78
2023-05-06T18:40:00.748Z,100475.88
2023-05-06T18:42:27.835Z,100472.78
2023-05-06T18:44:56.388Z,100479.22
2023-05-06T18:47:25.697Z,100481.50
2023-05-06T18:49:57.528Z,100479.50
2023-05-06T18:52:24.976Z,100478.88
2023-05-06T18:54:52.129Z,100480.25
2023-05-06T18:57:23.524Z,100474.66
2023-05-06T18:59:51.059Z,100477.28
2023-05-06T19:02:18.394Z,100487.03
2023-05-06T19:04:45.504Z,100492.53
2023-05-06T19:07:16.159Z,100493.59
2023-05-06T19:09:43.521Z,100492.28
2023-05-06T19:12:11.494Z,100502.75
2023-05-06T19:14:39.261Z,100500.53
2023-05-06T19:17:06.758Z,100502.75
2023-05-06T19:19:36.066Z,100508.28
2023-05-06T19:22:04.149Z,100518.63
2023-05-06T19:24:31.425Z,100516.75
2023-05-06T19:26:58.609Z,100520.44
2023-05-06T19:29:26.069Z,100514.94
2023-05-06T19:31:53.278Z,100515.19
2023-05-06T19:34:20.897Z,100511.37
2023-05-06T19:36:48.344Z,100516.38
2023-05-06T19:39:16.371Z,100515.19
2023-05-06T19:41:43.596Z,100516.00
2023-05-06T19:44:11.087Z,100527.22
2023-05-06T19:46:38.326Z,100531.75
2023-05-06T19:49:06.401Z,100545.22
2023-05-06T19:51:33.868Z,100539.13
2023-05-06T19:54:01.051Z,100536.13
2023-05-06T19:56:28.214Z,100542.06
2023-05-06T19:58:55.667Z,100534.91
2023-05-06T20:01:26.128Z,100549.44
2023-05-06T20:03:55.067Z,100549.13
2023-05-06T20:06:22.332Z,100546.44
2023-05-06T20:08:49.502Z,100544.88
2023-05-06T20:11:16.956Z,100538.37
2023-05-06T20:13:44.179Z,100536.03
2023-05-06T20:16:12.496Z,100527.50
2023-05-06T20:18:40.602Z,100521.06
2023-05-06T20:21:07.783Z,100515.66
2023-05-06T20:23:34.960Z,100515.34
2023-05-06T20:26:02.338Z,100510.00
2023-05-06T20:28:29.910Z,100507.91
2023-05-06T20:30:59.677Z,100499.81
2023-05-06T20:33:27.583Z,100495.28
2023-05-06T20:35:55.451Z,100484.28
2023-05-06T20:38:22.666Z,100475.81
2023-05-06T20:40:50.276Z,100479.81
2023-05-06T20:43:17.421Z,100487.03
2023-05-06T20:45:44.627Z,100493.75
2023-05-06T20:48:13.669Z,100492.34
2023-05-06T20:50:42.489Z,100490.31
2023-05-06T20:53:09.691Z,100487.78
2023-05-06T20:55:37.235Z,100494.03
2023-05-06T20:58:04.448Z,100489.88
2023-05-06T21:00:31.663Z,100484.63
2023-05-06T21:02:59.408Z,100477.22
2023-05-06T21:05:26.811Z,100481.31
2023-05-06T21:07:53.996Z,100482.03
2023-05-06T21:10:21.518Z,100485.84
2023-05-06T21:12:50.284Z,100486.38
2023-05-06T21:15:17.917Z,100483.50
2023-05-06T21:17:45.436Z,100477.75
2023-05-06T21:20:13.150Z,100483.25
2023-05-06T21:22:40.959Z,100479.81
2023-05-06T21:25:09.083Z,100494.56
2023-05-06T21:27:36.572Z,100494.69
2023-05-06T21:30:04.288Z,100498.75
2023-05-06T21:32:33.120Z,100493.72
2023-05-06T21:35:02.330Z,100502.41
2023-05-06T21:37:30.063Z,100514.94
2023-05-06T21:39:57.628Z,100523.38
2023-05-06T21:42:24.811Z,100521.34
2023-05-06T21:44:51.969Z,100527.31
2023-05-06T21:47:19.430Z,100529.47
2023-05-06T21:49:46.591Z,100553.16
2023-05-06T21:52:13.759Z,100568.06
2023-05-06T21:54:41.220Z,100563.53
2023-05-06T21:57:09.114Z,100564.75
2023-05-06T21:59:36.369Z,100561.06
2023-05-06T22:02:04.139Z,100570.59
2023-05-06T22:04:31.705Z,100574.06
2023-05-06T22:06:58.881Z,100566.91
2023-05-06T22:09:26.105Z,100574.53
2023-05-06T22:11:53.599Z,100570.97
2023-05-06T22:14:24.301Z,100548.31
2023-05-06T22:16:54.646Z,100524.00
2023-05-06T22:19:21.892Z,100516.72
2023-05-06T22:21:49.113Z,100517.53
2023-05-06T22:24:16.712Z,100517.09
2023-05-06T22:26:43.882Z,100513.16
2023-05-06T22:29:11.121Z,100508.28
2023-05-06T22:31:38.724Z,100500.88
2023-05-06T22:34:05.971Z,100496.34
2023-05-06T22:36:33.679Z,100500.78
2023-05-06T22:39:01.828Z,100500.88
2023-05-06T22:41:30.429Z,100501.84
2023-05-06T22:43:59.231Z,100503.25
2023-05-06T22:46:26.835Z,100504.84
2023-05-06T22:48:54.074Z,100496.12
2023-05-06T22:51:21.347Z,100488.13
2023-05-06T22:53:48.796Z,100490.16
2023-05-06T22:56:15.979Z,100492.91
2023-05-06T22:58:43.605Z,100498.28
2023-05-06T23:01:11.915Z,100494.00
2023-05-06T23:03:39.116Z,100490.75
2023-05-06T23:06:06.537Z,100492.41
2023-05-06T23:08:34.064Z,100498.50
2023-05-06T23:11:01.820Z,100501.22
2023-05-06T23:13:31.250Z,100501.06
2023-05-06T23:15:58.750Z,100509.97
2023-05-06T23:18:25.966Z,100507.47
2023-05-06T23:20:53.148Z,100506.28
2023-05-06T23:23:20.578Z,100504.25
2023-05-06T23:25:47.748Z,100512.34
2023-05-06T23:28:14.984Z,100506.50
2023-05-06T23:30:42.513Z,100511.28
2023-05-06T23:33:09.757Z,100505.06
2023-05-06T23:35:37.020Z,100504.75
2023-05-06T23:38:04.546Z,100507.69
2023-05-06T23:40:31.708Z,100503.16
2023-05-06T23:42:58.869Z,100494.59
2023-05-06T23:45:26.865Z,100497.09
2023-05-06T23:47:54.694Z,100497.94
2023-05-06T23:50:22.018Z,100493.84
2023-05-06T23:52:49.505Z,100496.44
2023-05-06T23:55:16.684Z,100493.88
2023-05-06T23:57:44.068Z,100496.47
